Startpagina
METAR-TAF:

METAR-TAF

Vliegvelden :

Mangalore, India

breedte: 12-55N, lengte: 074-53E, hoogte: 102 m

Actueel weer

Dit bericht is 29 minuten geleden gemaakt, om 19:00 UTC
Weinig wind
Temperatuur 26°C
Vochtigheid 84%
Druk 1012 hPa
Zicht: 6000 m
Weinig wolken op 1000 ft
Verspreide wolken op 1500 ft
Weinig wolken op 2500 ft, Cumulonimbus.

METAR: VOML 181900Z 00000KT 6000 FEW010 SCT015 FEW025CB 26/23 Q1012 NOSIG

Tijdstip: 00:59 (19:29 UTC)

Verwachting

Dit bericht is 2 uur en het 29 minuten geleden gemaakt, om 17:00 UTC
Verwachting geldig van 18 om 18 UTC tot 19 om 24 UTC
Wind 2 kt uit variabele richting
Zicht: 6000 m
Verspreide wolken op 1500 ft
Wijzigt naar
van 18 om 21 UTC tot 18 om 22 UTC
Wind 5 kt uit het oostzuidoosten

TAF: VOML 181700Z 1818/1924 VRB02KT 6000 SCT015 BECMG 1821/1822 11005KT

Waarnemingen en weersverwachtingen van meer dan 4000 vliegvelden (METAR en TAF).

De beschikbare stations zijn de gele en rode punten op de kaart.

Ga met uw muis naar het station om de naam te zien.

Klik dan om waarnemingen en weersverwachtingen te zien.

kaart wijzigen: klik op de groene knoppen met een zwart kruis om in te zoomen, op de groene knop met een streepje om uit te zoomen of op de groene pijlen voor aangrenzende kaarten.


METAR-TAF: